createdAt,value
2019-06-15T00:00:31.489Z,88.79
2019-06-15T00:03:02.724Z,89.37
2019-06-15T00:05:33.345Z,89.15
2019-06-15T00:08:04.888Z,89.47
2019-06-15T00:10:35.710Z,89.41
2019-06-15T00:13:06.189Z,89.01
2019-06-15T00:15:36.739Z,88.73
2019-06-15T00:18:07.203Z,89.43
2019-06-15T00:20:37.740Z,90.11
2019-06-15T00:23:08.257Z,90.03
2019-06-15T00:25:38.748Z,90.13
2019-06-15T00:28:09.217Z,90.21
2019-06-15T00:30:39.624Z,89.85
2019-06-15T00:33:10.122Z,89.72
2019-06-15T00:35:40.579Z,89.04
2019-06-15T00:38:11.109Z,88.73
2019-06-15T00:40:41.603Z,88.89
2019-06-15T00:43:12.049Z,89.12
2019-06-15T00:45:42.537Z,88.76
2019-06-15T00:48:12.981Z,87.86
2019-06-15T00:50:43.490Z,88.33
2019-06-15T00:53:13.992Z,88.33
2019-06-15T00:55:44.461Z,88.64
2019-06-15T00:58:14.911Z,89.10
2019-06-15T01:00:45.398Z,88.96
2019-06-15T01:03:15.878Z,89.35
2019-06-15T01:05:46.347Z,88.86
2019-06-15T01:08:16.887Z,89.64
2019-06-15T01:10:47.520Z,89.32
2019-06-15T01:13:17.998Z,89.73
2019-06-15T01:15:48.589Z,89.26
2019-06-15T01:18:19.075Z,88.48
2019-06-15T01:20:49.606Z,88.19
2019-06-15T01:23:20.155Z,87.91
2019-06-15T01:25:50.619Z,88.34
2019-06-15T01:28:21.073Z,87.95
2019-06-15T01:30:51.639Z,88.25
2019-06-15T01:33:22.149Z,88.13
2019-06-15T01:35:52.668Z,87.90
2019-06-15T01:38:23.094Z,87.74
2019-06-15T01:40:53.604Z,88.35
2019-06-15T01:43:24.095Z,87.54
2019-06-15T01:45:54.595Z,86.66
2019-06-15T01:48:25.117Z,87.36
2019-06-15T01:50:55.650Z,87.01
2019-06-15T01:53:26.229Z,86.25
2019-06-15T01:55:56.689Z,85.70
2019-06-15T01:58:27.078Z,85.76
2019-06-15T02:00:57.889Z,86.05
2019-06-15T02:03:28.365Z,86.26
2019-06-15T02:05:58.847Z,85.80
2019-06-15T02:08:29.360Z,85.75
2019-06-15T02:10:59.906Z,86.46
2019-06-15T02:13:30.346Z,86.10
2019-06-15T02:16:02.194Z,86.27
2019-06-15T02:18:32.970Z,86.18
2019-06-15T02:21:03.382Z,86.22
2019-06-15T02:23:33.888Z,86.00
2019-06-15T02:26:04.376Z,85.73
2019-06-15T02:28:34.813Z,85.57
2019-06-15T02:31:05.562Z,85.80
2019-06-15T02:33:36.086Z,86.10
2019-06-15T02:36:06.781Z,85.90
2019-06-15T02:38:37.154Z,86.09
2019-06-15T02:41:07.642Z,85.83
2019-06-15T02:43:38.105Z,85.17
2019-06-15T02:46:08.703Z,84.65
2019-06-15T02:48:39.204Z,85.17
2019-06-15T02:51:09.889Z,84.63
2019-06-15T02:53:40.377Z,85.57
2019-06-15T02:56:10.864Z,85.69
2019-06-15T02:58:41.333Z,85.17
2019-06-15T03:01:11.858Z,85.03
2019-06-15T03:03:42.332Z,85.15
2019-06-15T03:06:12.907Z,85.20
2019-06-15T03:08:43.826Z,84.69
2019-06-15T03:11:14.290Z,84.72
2019-06-15T03:13:45.172Z,84.44
2019-06-15T03:16:15.689Z,84.22
2019-06-15T03:18:46.149Z,83.72
2019-06-15T03:21:16.615Z,83.84
2019-06-15T03:23:47.084Z,83.59
2019-06-15T03:26:17.538Z,83.97
2019-06-15T03:28:48.052Z,84.12
2019-06-15T03:31:18.527Z,84.32
2019-06-15T03:33:48.984Z,83.60
2019-06-15T03:36:19.474Z,83.93
2019-06-15T03:38:49.949Z,84.35
2019-06-15T03:41:20.421Z,84.48
2019-06-15T03:43:50.970Z,84.43
2019-06-15T03:46:21.377Z,84.64
2019-06-15T03:48:51.870Z,84.61
2019-06-15T03:51:22.370Z,84.77
2019-06-15T03:53:52.921Z,84.84
2019-06-15T03:56:23.339Z,85.37
2019-06-15T03:58:53.785Z,85.92
2019-06-15T04:01:35.162Z,85.96
2019-06-15T04:04:05.621Z,87.21
2019-06-15T04:06:36.086Z,88.71
2019-06-15T04:09:10.111Z,90.21
2019-06-15T04:11:44.459Z,91.22
2019-06-15T04:14:14.951Z,92.48
2019-06-15T04:16:45.447Z,93.49
2019-06-15T04:19:15.863Z,94.53
2019-06-15T04:21:46.350Z,95.84
2019-06-15T04:24:16.823Z,96.44
2019-06-15T04:26:47.308Z,95.85
2019-06-15T04:29:17.869Z,95.91
2019-06-15T04:31:48.335Z,96.39
2019-06-15T04:34:18.832Z,96.85
2019-06-15T04:36:49.286Z,97.03
2019-06-15T04:39:19.767Z,97.04
2019-06-15T04:41:50.275Z,97.40
2019-06-15T04:44:20.769Z,97.65
2019-06-15T04:46:51.255Z,97.87
2019-06-15T04:49:21.729Z,97.99
2019-06-15T04:51:52.267Z,98.22
2019-06-15T04:54:22.749Z,98.44
2019-06-15T04:56:53.227Z,98.49
2019-06-15T04:59:23.880Z,97.48
2019-06-15T05:01:54.377Z,97.61
2019-06-15T05:04:24.874Z,97.48
2019-06-15T05:06:55.391Z,97.22
2019-06-15T05:09:25.853Z,97.62
2019-06-15T05:11:56.354Z,97.30
2019-06-15T05:14:26.903Z,97.30
2019-06-15T05:16:57.299Z,97.72
2019-06-15T05:19:27.813Z,97.87
2019-06-15T05:21:58.371Z,97.99
2019-06-15T05:24:28.884Z,97.97
2019-06-15T05:27:06.284Z,98.01
2019-06-15T05:29:31.644Z,98.25
2019-06-15T05:32:02.164Z,98.25
2019-06-15T05:34:32.637Z,98.53
2019-06-15T05:37:03.255Z,98.68
2019-06-15T05:39:33.726Z,98.69
2019-06-15T05:42:04.205Z,98.79
2019-06-15T05:44:34.900Z,98.61
2019-06-15T05:47:05.403Z,98.42
2019-06-15T05:49:35.818Z,98.39
2019-06-15T05:52:06.467Z,98.68
2019-06-15T05:54:36.964Z,98.74
2019-06-15T05:57:20.915Z,98.98
2019-06-15T05:59:39.695Z,98.81
2019-06-15T06:02:10.610Z,98.68
2019-06-15T06:04:41.170Z,98.97
2019-06-15T06:07:11.738Z,98.93
2019-06-15T06:09:42.229Z,98.81
2019-06-15T06:12:12.736Z,98.94
2019-06-15T06:14:43.271Z,99.13
2019-06-15T06:17:13.910Z,99.30
2019-06-15T06:19:44.445Z,99.22
2019-06-15T06:22:15.043Z,99.33
2019-06-15T06:24:45.569Z,99.62
2019-06-15T06:27:15.997Z,99.76
2019-06-15T06:29:46.560Z,100.00
2019-06-15T06:32:17.142Z,100.00
2019-06-15T06:34:47.612Z,100.00
2019-06-15T06:37:18.248Z,99.93
2019-06-15T06:39:48.770Z,99.58
2019-06-15T06:42:19.582Z,99.44
2019-06-15T06:44:50.130Z,99.33
2019-06-15T06:47:20.726Z,98.73
2019-06-15T06:49:51.713Z,99.11
2019-06-15T06:52:22.361Z,98.96
2019-06-15T06:54:52.850Z,98.95
2019-06-15T06:57:23.443Z,98.78
2019-06-15T06:59:53.993Z,99.17
2019-06-15T07:02:24.542Z,99.43
2019-06-15T07:04:55.003Z,99.55
2019-06-15T07:07:25.507Z,99.02
2019-06-15T07:09:55.944Z,99.16
2019-06-15T07:12:26.513Z,99.27
2019-06-15T07:14:57.062Z,99.55
2019-06-15T07:17:27.593Z,99.29
2019-06-15T07:19:58.048Z,98.98
2019-06-15T07:22:28.667Z,98.75
2019-06-15T07:24:59.115Z,98.30
2019-06-15T07:27:29.609Z,98.05
2019-06-15T07:30:00.121Z,97.89
2019-06-15T07:32:30.629Z,98.03
2019-06-15T07:35:01.135Z,98.30
2019-06-15T07:37:32.000Z,97.88
2019-06-15T07:40:02.573Z,97.36
2019-06-15T07:42:33.168Z,96.90
2019-06-15T07:45:03.689Z,96.51
2019-06-15T07:47:34.184Z,96.55
2019-06-15T07:50:05.228Z,96.56
2019-06-15T07:52:35.762Z,96.52
2019-06-15T07:55:06.959Z,97.39
2019-06-15T07:57:37.554Z,97.19
2019-06-15T08:00:09.916Z,97.54
2019-06-15T08:02:40.435Z,98.24
2019-06-15T08:05:12.067Z,99.03
2019-06-15T08:07:43.494Z,98.99
2019-06-15T08:10:14.301Z,99.07
2019-06-15T08:12:44.788Z,99.13
2019-06-15T08:15:15.513Z,99.09
2019-06-15T08:17:45.977Z,98.97
2019-06-15T08:20:22.957Z,98.37
2019-06-15T08:22:53.467Z,98.65
2019-06-15T08:25:23.993Z,98.46
2019-06-15T08:27:54.586Z,97.97
2019-06-15T08:30:36.136Z,98.09
2019-06-15T08:33:06.753Z,97.41
2019-06-15T08:35:37.244Z,96.98
2019-06-15T08:38:07.767Z,97.35
2019-06-15T08:40:38.278Z,97.92
2019-06-15T08:43:08.793Z,97.74
2019-06-15T08:45:39.313Z,97.08
2019-06-15T08:48:09.941Z,97.16
2019-06-15T08:50:40.452Z,96.74
2019-06-15T08:53:10.957Z,96.86
2019-06-15T08:55:41.490Z,96.84
2019-06-15T08:58:12.072Z,97.13
2019-06-15T09:00:42.582Z,96.30
2019-06-15T09:03:13.113Z,96.83
2019-06-15T09:05:43.677Z,96.58
2019-06-15T09:08:14.172Z,96.42
2019-06-15T09:10:44.676Z,97.08
2019-06-15T09:13:15.150Z,97.36
2019-06-15T09:15:53.341Z,96.98
2019-06-15T09:18:24.274Z,96.84
2019-06-15T09:20:56.207Z,96.75
2019-06-15T09:23:26.711Z,96.49
2019-06-15T09:25:57.219Z,95.57
2019-06-15T09:28:27.696Z,95.55
2019-06-15T09:30:58.145Z,95.59
2019-06-15T09:33:28.628Z,94.98
2019-06-15T09:35:59.180Z,94.70
2019-06-15T09:38:29.727Z,93.68
2019-06-15T09:41:00.259Z,93.68
2019-06-15T09:43:30.744Z,93.40
2019-06-15T09:46:01.236Z,94.08
2019-06-15T09:48:31.724Z,94.28
2019-06-15T09:51:02.218Z,94.49
2019-06-15T09:53:32.766Z,94.01
2019-06-15T09:56:03.262Z,94.14
2019-06-15T09:58:33.736Z,93.23
2019-06-15T10:01:04.235Z,93.29
2019-06-15T10:03:34.720Z,93.81
2019-06-15T10:06:05.697Z,93.92
2019-06-15T10:08:36.369Z,93.69
2019-06-15T10:11:06.904Z,93.83
2019-06-15T10:13:37.303Z,93.50
2019-06-15T10:16:07.939Z,93.39
2019-06-15T10:18:39.028Z,93.13
2019-06-15T10:21:09.617Z,93.63
2019-06-15T10:23:40.118Z,93.96
2019-06-15T10:26:10.612Z,93.01
2019-06-15T10:28:41.028Z,93.13
2019-06-15T10:31:11.544Z,93.01
2019-06-15T10:33:42.130Z,93.53
2019-06-15T10:36:12.611Z,93.29
2019-06-15T10:38:43.037Z,93.08
2019-06-15T10:41:13.540Z,92.89
2019-06-15T10:43:44.114Z,92.93
2019-06-15T10:46:14.642Z,93.13
2019-06-15T10:48:45.124Z,92.86
2019-06-15T10:51:15.585Z,93.04
2019-06-15T10:53:46.127Z,92.80
2019-06-15T10:56:16.605Z,93.03
2019-06-15T10:58:47.116Z,92.83
2019-06-15T11:01:17.604Z,93.15
2019-06-15T11:03:48.002Z,92.25
2019-06-15T11:06:18.473Z,92.06
2019-06-15T11:08:48.961Z,92.99
2019-06-15T11:11:23.621Z,92.00
2019-06-15T11:13:54.261Z,92.35
2019-06-15T11:16:24.844Z,92.34
2019-06-15T11:18:55.325Z,93.05
2019-06-15T11:21:25.844Z,93.05
2019-06-15T11:23:56.335Z,92.91
2019-06-15T11:26:26.813Z,92.44
2019-06-15T11:28:57.316Z,92.67
2019-06-15T11:31:27.954Z,92.80
2019-06-15T11:33:58.516Z,93.03
2019-06-15T11:36:29.083Z,92.10
2019-06-15T11:38:59.620Z,93.11
2019-06-15T11:41:30.097Z,93.33
2019-06-15T11:44:00.806Z,93.42
2019-06-15T11:46:31.315Z,93.61
2019-06-15T11:49:01.785Z,92.86
2019-06-15T11:51:32.248Z,92.37
2019-06-15T11:54:03.671Z,92.35
2019-06-15T11:56:34.171Z,91.85
2019-06-15T11:59:04.795Z,91.56
2019-06-15T12:01:35.280Z,91.10
2019-06-15T12:04:05.743Z,91.02
2019-06-15T12:06:36.502Z,91.55
2019-06-15T12:09:09.367Z,92.50
2019-06-15T12:11:39.827Z,92.89
2019-06-15T12:14:10.305Z,93.18
2019-06-15T12:16:40.824Z,93.74
2019-06-15T12:19:11.324Z,93.82
2019-06-15T12:21:41.816Z,93.90
2019-06-15T12:24:12.379Z,93.78
2019-06-15T12:26:42.864Z,93.39
2019-06-15T12:29:13.288Z,94.49
2019-06-15T12:31:43.806Z,95.37
2019-06-15T12:34:14.246Z,95.62
2019-06-15T12:36:44.723Z,96.10
2019-06-15T12:39:15.250Z,96.73
2019-06-15T12:41:45.828Z,96.45
2019-06-15T12:44:17.181Z,96.56
2019-06-15T12:46:47.678Z,95.76
2019-06-15T12:49:18.169Z,94.19
2019-06-15T12:51:48.673Z,92.45
2019-06-15T12:54:19.156Z,92.79
2019-06-15T12:56:49.675Z,91.54
2019-06-15T12:59:20.165Z,92.40
2019-06-15T13:01:50.628Z,92.06
2019-06-15T13:04:21.093Z,92.20
2019-06-15T13:06:51.572Z,90.68
2019-06-15T13:09:22.052Z,90.82
2019-06-15T13:11:53.896Z,90.70
2019-06-15T13:14:24.367Z,91.10
2019-06-15T13:16:54.949Z,92.00
2019-06-15T13:19:25.520Z,92.68
2019-06-15T13:21:56.220Z,92.74
2019-06-15T13:24:26.697Z,92.28
2019-06-15T13:26:57.153Z,92.92
2019-06-15T13:29:27.625Z,92.96
2019-06-15T13:31:58.175Z,90.87
2019-06-15T13:34:28.726Z,87.69
2019-06-15T13:36:59.241Z,85.77
2019-06-15T13:39:29.840Z,85.59
2019-06-15T13:42:00.282Z,85.56
2019-06-15T13:44:30.746Z,86.19
2019-06-15T13:47:01.225Z,86.48
2019-06-15T13:49:31.732Z,87.25
2019-06-15T13:52:02.198Z,88.85
2019-06-15T13:54:32.681Z,89.30
2019-06-15T13:57:03.266Z,90.36
2019-06-15T13:59:33.788Z,90.66
2019-06-15T14:02:04.362Z,90.55
2019-06-15T14:04:34.842Z,90.63
2019-06-15T14:07:05.407Z,90.77
2019-06-15T14:09:35.904Z,90.48
2019-06-15T14:12:06.497Z,89.90
2019-06-15T14:14:36.941Z,90.18
2019-06-15T14:17:07.488Z,89.17
2019-06-15T14:19:38.014Z,88.95
2019-06-15T14:22:08.490Z,88.70
2019-06-15T14:24:39.092Z,87.58
2019-06-15T14:27:09.559Z,88.21
2019-06-15T14:29:40.395Z,88.83
2019-06-15T14:32:10.878Z,85.76
2019-06-15T14:34:41.353Z,79.59
2019-06-15T14:37:11.827Z,74.50
2019-06-15T14:39:42.334Z,74.17
2019-06-15T14:42:12.808Z,74.99
2019-06-15T14:44:43.252Z,77.41
2019-06-15T14:47:13.859Z,72.37
2019-06-15T14:49:44.330Z,73.69
2019-06-15T14:52:15.767Z,77.41
2019-06-15T14:54:46.323Z,78.94
2019-06-15T14:57:17.714Z,80.15
2019-06-15T14:59:59.659Z,78.85
2019-06-15T15:02:20.420Z,79.28
2019-06-15T15:04:50.897Z,76.34
2019-06-15T15:07:21.368Z,76.04
2019-06-15T15:09:51.888Z,72.76
2019-06-15T15:12:22.477Z,69.94
2019-06-15T15:14:52.933Z,70.67
2019-06-15T15:17:23.420Z,70.60
2019-06-15T15:19:53.902Z,72.29
2019-06-15T15:22:26.687Z,74.21
2019-06-15T15:24:56.682Z,71.67
2019-06-15T15:27:27.415Z,69.64
2019-06-15T15:29:57.969Z,61.86
2019-06-15T15:32:31.510Z,60.43
2019-06-15T15:35:00.655Z,58.52
2019-06-15T15:37:31.135Z,56.72
2019-06-15T15:40:01.647Z,54.87
2019-06-15T15:42:32.117Z,55.53
2019-06-15T15:45:02.581Z,55.21
2019-06-15T15:47:33.161Z,52.38
2019-06-15T15:50:06.271Z,50.57
2019-06-15T15:52:37.494Z,52.40
2019-06-15T15:55:09.138Z,51.57
2019-06-15T15:57:39.593Z,50.03
2019-06-15T16:00:12.465Z,49.55
2019-06-15T16:02:51.823Z,50.75
2019-06-15T16:05:16.597Z,50.73
2019-06-15T16:07:47.203Z,53.16
2019-06-15T16:10:17.805Z,55.00
2019-06-15T16:12:48.284Z,56.70
2019-06-15T16:15:18.866Z,58.95
2019-06-15T16:17:49.420Z,60.20
2019-06-15T16:20:19.948Z,63.47
2019-06-15T16:22:50.496Z,64.12
2019-06-15T16:25:21.015Z,65.22
2019-06-15T16:27:51.524Z,67.09
2019-06-15T16:30:56.294Z,67.71
2019-06-15T16:33:05.232Z,68.42
2019-06-15T16:35:36.310Z,69.27
2019-06-15T16:38:07.236Z,69.04
2019-06-15T16:40:39.594Z,70.73
2019-06-15T16:43:10.416Z,71.31
2019-06-15T16:45:41.107Z,70.91
2019-06-15T16:48:11.661Z,71.01
2019-06-15T16:50:42.160Z,71.04
2019-06-15T16:53:12.694Z,71.64
2019-06-15T16:55:43.233Z,70.86
2019-06-15T16:58:15.952Z,71.51
2019-06-15T17:00:47.649Z,71.52
2019-06-15T17:03:24.490Z,72.69
2019-06-15T17:05:50.740Z,72.39
2019-06-15T17:08:21.272Z,73.07
2019-06-15T17:10:51.786Z,73.36
2019-06-15T17:13:22.331Z,73.94
2019-06-15T17:15:52.796Z,73.37
2019-06-15T17:18:23.316Z,74.56
2019-06-15T17:20:56.334Z,74.61
2019-06-15T17:23:27.641Z,74.65
2019-06-15T17:25:58.353Z,75.21
2019-06-15T17:28:28.875Z,75.72
2019-06-15T17:30:59.394Z,76.38
2019-06-15T17:33:37.730Z,77.05
2019-06-15T17:36:03.338Z,77.43
2019-06-15T17:38:36.693Z,78.05
2019-06-15T17:41:06.462Z,77.47
2019-06-15T17:43:36.984Z,77.74
2019-06-15T17:46:07.551Z,77.78
2019-06-15T17:48:38.053Z,78.15
2019-06-15T17:51:08.550Z,78.09
2019-06-15T17:53:39.097Z,78.56
2019-06-15T17:56:09.654Z,79.34
2019-06-15T17:58:40.249Z,79.62
2019-06-15T18:01:10.772Z,79.74
2019-06-15T18:03:50.389Z,79.74
2019-06-15T18:06:13.569Z,80.16
2019-06-15T18:08:46.459Z,79.72
2019-06-15T18:11:16.673Z,81.03
2019-06-15T18:13:47.472Z,81.92
2019-06-15T18:16:18.024Z,82.66
2019-06-15T18:18:48.627Z,82.54
2019-06-15T18:21:19.141Z,82.50
2019-06-15T18:23:49.715Z,82.54
2019-06-15T18:26:20.299Z,82.47
2019-06-15T18:28:50.839Z,82.56
2019-06-15T18:31:21.402Z,82.18
2019-06-15T18:34:06.593Z,81.22
2019-06-15T18:36:26.100Z,80.82
2019-06-15T18:38:57.633Z,80.47
2019-06-15T18:41:28.486Z,80.83
2019-06-15T18:43:59.019Z,81.03
2019-06-15T18:46:29.698Z,80.79
2019-06-15T18:49:00.246Z,80.05
2019-06-15T18:51:30.823Z,79.11
2019-06-15T18:54:01.604Z,78.83
2019-06-15T18:56:32.270Z,77.62
2019-06-15T18:59:03.008Z,78.06
2019-06-15T19:01:33.601Z,78.07
2019-06-15T19:04:06.808Z,78.92
2019-06-15T19:06:37.135Z,79.20
2019-06-15T19:09:10.404Z,79.04
2019-06-15T19:11:40.972Z,79.75
2019-06-15T19:14:11.594Z,80.37
2019-06-15T19:16:42.172Z,80.31
2019-06-15T19:19:12.825Z,81.06
2019-06-15T19:21:43.438Z,81.36
2019-06-15T19:24:16.582Z,81.22
2019-06-15T19:26:46.454Z,81.59
2019-06-15T19:29:17.268Z,82.16
2019-06-15T19:31:47.955Z,82.61
2019-06-15T19:34:18.577Z,82.79
2019-06-15T19:36:49.090Z,82.96
2019-06-15T19:39:19.889Z,82.43
2019-06-15T19:41:50.715Z,83.09
2019-06-15T19:44:22.323Z,82.93
2019-06-15T19:46:53.007Z,82.98
2019-06-15T19:49:25.878Z,83.03
2019-06-15T19:51:56.565Z,83.74
2019-06-15T19:54:27.521Z,83.72
2019-06-15T19:56:58.651Z,83.57
2019-06-15T19:59:29.372Z,83.80
2019-06-15T20:02:00.251Z,83.48
2019-06-15T20:04:30.832Z,83.82
2019-06-15T20:07:01.341Z,84.03
2019-06-15T20:09:31.998Z,83.99
2019-06-15T20:12:02.767Z,83.98
2019-06-15T20:14:33.521Z,84.45
2019-06-15T20:17:04.206Z,84.42
2019-06-15T20:19:37.518Z,84.27
2019-06-15T20:22:07.297Z,84.80
2019-06-15T20:24:38.034Z,84.48
2019-06-15T20:27:10.371Z,85.09
2019-06-15T20:29:41.088Z,85.58
2019-06-15T20:32:11.750Z,84.90
2019-06-15T20:34:42.347Z,84.61
2019-06-15T20:37:13.136Z,84.73
2019-06-15T20:39:43.764Z,84.57
2019-06-15T20:42:16.467Z,84.87
2019-06-15T20:44:47.372Z,84.57
2019-06-15T20:47:17.975Z,84.62
2019-06-15T20:49:48.534Z,85.32
2019-06-15T20:52:19.094Z,84.95
2019-06-15T20:54:49.634Z,84.37
2019-06-15T20:57:20.175Z,84.19
2019-06-15T20:59:50.735Z,83.84
2019-06-15T21:02:21.270Z,84.12
2019-06-15T21:04:51.819Z,84.00
2019-06-15T21:07:22.298Z,83.86
2019-06-15T21:09:52.820Z,84.21
2019-06-15T21:12:23.357Z,84.16
2019-06-15T21:14:56.080Z,84.13
2019-06-15T21:17:27.563Z,84.08
2019-06-15T21:19:58.161Z,83.88
2019-06-15T21:22:28.642Z,84.34
2019-06-15T21:24:59.229Z,84.08
2019-06-15T21:27:29.759Z,84.23
2019-06-15T21:30:00.232Z,83.88
2019-06-15T21:32:30.841Z,83.36
2019-06-15T21:35:01.380Z,83.58
2019-06-15T21:37:31.967Z,84.06
2019-06-15T21:40:02.557Z,83.98
2019-06-15T21:42:33.074Z,84.16
2019-06-15T21:45:03.733Z,84.20
2019-06-15T21:47:36.932Z,84.33
2019-06-15T21:50:07.399Z,84.73
2019-06-15T21:52:37.907Z,84.63
2019-06-15T21:55:08.863Z,84.52
2019-06-15T21:57:39.416Z,85.15
2019-06-15T22:00:17.481Z,84.87
2019-06-15T22:02:48.163Z,85.28
2019-06-15T22:05:18.649Z,84.80
2019-06-15T22:07:49.198Z,84.80
2019-06-15T22:10:20.322Z,85.67
2019-06-15T22:12:50.804Z,85.32
2019-06-15T22:15:21.359Z,85.04
2019-06-15T22:17:51.893Z,84.59
2019-06-15T22:20:22.411Z,84.60
2019-06-15T22:22:53.011Z,84.84
2019-06-15T22:25:23.550Z,85.39
2019-06-15T22:27:56.077Z,85.26
2019-06-15T22:30:27.710Z,85.42
2019-06-15T22:32:58.352Z,84.83
2019-06-15T22:35:28.872Z,84.78
2019-06-15T22:37:59.512Z,84.90
2019-06-15T22:40:30.019Z,85.32
2019-06-15T22:43:00.535Z,84.60
2019-06-15T22:45:31.050Z,85.17
2019-06-15T22:48:01.528Z,85.12
2019-06-15T22:50:32.014Z,84.99
2019-06-15T22:53:06.417Z,84.88
2019-06-15T22:55:36.773Z,84.82
2019-06-15T22:58:06.917Z,84.42
2019-06-15T23:00:37.718Z,84.54
2019-06-15T23:03:08.259Z,84.75
2019-06-15T23:05:38.768Z,84.84
2019-06-15T23:08:09.317Z,85.28
2019-06-15T23:10:39.797Z,84.24
2019-06-15T23:13:10.261Z,83.87
2019-06-15T23:15:40.772Z,83.78
2019-06-15T23:18:11.477Z,84.44
2019-06-15T23:20:41.990Z,83.32
2019-06-15T23:23:12.505Z,83.30
2019-06-15T23:25:43.103Z,83.12
2019-06-15T23:28:13.607Z,82.89
2019-06-15T23:30:47.001Z,82.89
2019-06-15T23:33:17.224Z,82.76
2019-06-15T23:35:53.513Z,82.58
2019-06-15T23:38:23.918Z,83.28
2019-06-15T23:40:56.143Z,83.38
2019-06-15T23:43:27.022Z,83.86
2019-06-15T23:45:57.571Z,83.55
2019-06-15T23:48:28.036Z,83.53
2019-06-15T23:50:58.540Z,84.07
2019-06-15T23:53:29.063Z,84.70
2019-06-15T23:55:59.547Z,84.89
2019-06-15T23:58:30.150Z,85.09
